sensor_id;sensor_type;location;lat;lon;timestamp;temperature;humidity
5200;DHT22;2619;47.868;11.892;2023-05-10T00:00:22;13.20;99.90
5200;DHT22;2619;47.868;11.892;2023-05-10T00:02:49;13.20;99.90
5200;DHT22;2619;47.868;11.892;2023-05-10T00:05:14;13.20;99.90
5200;DHT22;2619;47.868;11.892;2023-05-10T00:07:40;13.10;99.90
5200;DHT22;2619;47.868;11.892;2023-05-10T00:10:06;13.00;99.90
5200;DHT22;2619;47.868;11.892;2023-05-10T00:12:32;13.00;99.90
5200;DHT22;2619;47.868;11.892;2023-05-10T00:14:57;13.00;99.90
5200;DHT22;2619;47.868;11.892;2023-05-10T00:17:23;12.90;99.90
5200;DHT22;2619;47.868;11.892;2023-05-10T00:19:49;13.00;99.90
5200;DHT22;2619;47.868;11.892;2023-05-10T00:22:14;13.00;99.90
5200;DHT22;2619;47.868;11.892;2023-05-10T00:24:40;13.00;99.90
5200;DHT22;2619;47.868;11.892;2023-05-10T00:27:05;13.00;99.90
5200;DHT22;2619;47.868;11.892;2023-05-10T00:29:31;12.90;99.90
5200;DHT22;2619;47.868;11.892;2023-05-10T00:31:57;12.90;99.90
5200;DHT22;2619;47.868;11.892;2023-05-10T00:34:22;13.00;99.90
5200;DHT22;2619;47.868;11.892;2023-05-10T00:36:48;12.90;99.90
5200;DHT22;2619;47.868;11.892;2023-05-10T00:39:13;12.90;99.90
5200;DHT22;2619;47.868;11.892;2023-05-10T00:41:39;12.90;99.90
5200;DHT22;2619;47.868;11.892;2023-05-10T00:44:05;12.70;99.90
5200;DHT22;2619;47.868;11.892;2023-05-10T00:46:31;12.80;99.90
5200;DHT22;2619;47.868;11.892;2023-05-10T00:48:57;12.70;99.90
5200;DHT22;2619;47.868;11.892;2023-05-10T00:51:23;12.70;99.90
5200;DHT22;2619;47.868;11.892;2023-05-10T00:53:49;12.70;99.90
5200;DHT22;2619;47.868;11.892;2023-05-10T00:56:16;12.70;99.90
5200;DHT22;2619;47.868;11.892;2023-05-10T00:58:42;12.70;99.90
5200;DHT22;2619;47.868;11.892;2023-05-10T01:01:08;12.70;99.90
5200;DHT22;2619;47.868;11.892;2023-05-10T01:03:34;12.70;99.90
5200;DHT22;2619;47.868;11.892;2023-05-10T01:06:01;12.70;99.90
5200;DHT22;2619;47.868;11.892;2023-05-10T01:08:27;12.70;99.90
5200;DHT22;2619;47.868;11.892;2023-05-10T01:10:54;12.60;99.90
5200;DHT22;2619;47.868;11.892;2023-05-10T01:13:47;12.60;99.90
5200;DHT22;2619;47.868;11.892;2023-05-10T01:16:15;12.60;99.90
5200;DHT22;2619;47.868;11.892;2023-05-10T01:18:41;12.60;99.90
5200;DHT22;2619;47.868;11.892;2023-05-10T01:22:10;12.50;99.90
5200;DHT22;2619;47.868;11.892;2023-05-10T01:38:50;12.50;99.90
5200;DHT22;2619;47.868;11.892;2023-05-10T01:46:40;12.40;99.90
5200;DHT22;2619;47.868;11.892;2023-05-10T01:49:23;12.40;99.90
5200;DHT22;2619;47.868;11.892;2023-05-10T01:51:53;12.40;99.90
5200;DHT22;2619;47.868;11.892;2023-05-10T01:54:21;12.40;99.90
5200;DHT22;2619;47.868;11.892;2023-05-10T01:56:55;12.40;99.90
5200;DHT22;2619;47.868;11.892;2023-05-10T01:59:29;12.40;99.90
5200;DHT22;2619;47.868;11.892;2023-05-10T02:01:58;12.40;99.90
5200;DHT22;2619;47.868;11.892;2023-05-10T02:04:25;12.30;99.90
5200;DHT22;2619;47.868;11.892;2023-05-10T02:06:53;12.30;99.90
5200;DHT22;2619;47.868;11.892;2023-05-10T02:09:20;12.40;99.90
5200;DHT22;2619;47.868;11.892;2023-05-10T02:11:47;12.40;99.90
5200;DHT22;2619;47.868;11.892;2023-05-10T02:14:14;12.30;99.90
5200;DHT22;2619;47.868;11.892;2023-05-10T02:16:41;12.40;99.90
5200;DHT22;2619;47.868;11.892;2023-05-10T02:19:08;12.30;99.90
5200;DHT22;2619;47.868;11.892;2023-05-10T02:21:35;12.30;99.90
5200;DHT22;2619;47.868;11.892;2023-05-10T02:24:03;12.30;99.90
5200;DHT22;2619;47.868;11.892;2023-05-10T02:26:31;12.30;99.90
5200;DHT22;2619;47.868;11.892;2023-05-10T02:28:58;12.30;99.90
5200;DHT22;2619;47.868;11.892;2023-05-10T02:31:25;12.20;99.90
5200;DHT22;2619;47.868;11.892;2023-05-10T02:33:51;12.20;99.90
5200;DHT22;2619;47.868;11.892;2023-05-10T02:36:20;12.20;99.90
5200;DHT22;2619;47.868;11.892;2023-05-10T02:38:46;12.20;99.90
5200;DHT22;2619;47.868;11.892;2023-05-10T02:41:14;12.20;99.90
5200;DHT22;2619;47.868;11.892;2023-05-10T02:43:40;12.20;99.90
5200;DHT22;2619;47.868;11.892;2023-05-10T02:46:07;12.20;99.90
5200;DHT22;2619;47.868;11.892;2023-05-10T02:48:32;12.20;99.90
5200;DHT22;2619;47.868;11.892;2023-05-10T02:51:03;12.20;99.90
5200;DHT22;2619;47.868;11.892;2023-05-10T02:53:31;12.20;99.90
5200;DHT22;2619;47.868;11.892;2023-05-10T02:56:00;12.30;99.90
5200;DHT22;2619;47.868;11.892;2023-05-10T02:58:26;12.30;99.90
5200;DHT22;2619;47.868;11.892;2023-05-10T03:00:52;12.20;99.90
5200;DHT22;2619;47.868;11.892;2023-05-10T03:03:18;12.20;99.90
5200;DHT22;2619;47.868;11.892;2023-05-10T03:05:43;12.20;99.90
5200;DHT22;2619;47.868;11.892;2023-05-10T03:08:09;12.20;99.90
5200;DHT22;2619;47.868;11.892;2023-05-10T03:10:50;12.30;99.90
5200;DHT22;2619;47.868;11.892;2023-05-10T03:16:17;12.20;99.90
5200;DHT22;2619;47.868;11.892;2023-05-10T03:18:56;12.20;99.90
5200;DHT22;2619;47.868;11.892;2023-05-10T03:21:29;12.20;99.90
5200;DHT22;2619;47.868;11.892;2023-05-10T03:24:07;12.20;99.90
5200;DHT22;2619;47.868;11.892;2023-05-10T03:26:34;12.20;99.90
5200;DHT22;2619;47.868;11.892;2023-05-10T03:29:00;12.20;99.90
5200;DHT22;2619;47.868;11.892;2023-05-10T03:31:26;12.20;99.90
5200;DHT22;2619;47.868;11.892;2023-05-10T03:33:52;12.20;99.90
5200;DHT22;2619;47.868;11.892;2023-05-10T03:36:19;12.30;99.90
5200;DHT22;2619;47.868;11.892;2023-05-10T03:38:45;12.20;99.90
5200;DHT22;2619;47.868;11.892;2023-05-10T03:41:10;12.20;99.90
5200;DHT22;2619;47.868;11.892;2023-05-10T03:43:36;12.20;99.90
5200;DHT22;2619;47.868;11.892;2023-05-10T03:46:03;12.10;99.90
5200;DHT22;2619;47.868;11.892;2023-05-10T03:48:29;12.10;99.90
5200;DHT22;2619;47.868;11.892;2023-05-10T03:50:55;12.20;99.90
5200;DHT22;2619;47.868;11.892;2023-05-10T03:53:21;12.20;99.90
5200;DHT22;2619;47.868;11.892;2023-05-10T03:55:46;12.10;99.90
5200;DHT22;2619;47.868;11.892;2023-05-10T03:58:12;12.20;99.90
5200;DHT22;2619;47.868;11.892;2023-05-10T04:00:37;12.10;99.90
5200;DHT22;2619;47.868;11.892;2023-05-10T04:03:09;12.10;99.90
5200;DHT22;2619;47.868;11.892;2023-05-10T04:05:38;12.20;99.90
5200;DHT22;2619;47.868;11.892;2023-05-10T04:08:04;12.10;99.90
5200;DHT22;2619;47.868;11.892;2023-05-10T04:10:30;12.10;99.90
5200;DHT22;2619;47.868;11.892;2023-05-10T04:12:55;12.10;99.90
5200;DHT22;2619;47.868;11.892;2023-05-10T04:15:21;12.10;99.90
5200;DHT22;2619;47.868;11.892;2023-05-10T04:17:47;12.10;99.90
5200;DHT22;2619;47.868;11.892;2023-05-10T04:20:13;12.10;99.90
5200;DHT22;2619;47.868;11.892;2023-05-10T04:22:38;12.10;99.90
5200;DHT22;2619;47.868;11.892;2023-05-10T04:25:05;12.10;99.90
5200;DHT22;2619;47.868;11.892;2023-05-10T04:27:31;12.10;99.90
5200;DHT22;2619;47.868;11.892;2023-05-10T04:29:57;12.00;99.90
5200;DHT22;2619;47.868;11.892;2023-05-10T04:32:23;12.00;99.90
5200;DHT22;2619;47.868;11.892;2023-05-10T04:34:48;12.00;99.90
5200;DHT22;2619;47.868;11.892;2023-05-10T04:37:14;12.00;99.90
5200;DHT22;2619;47.868;11.892;2023-05-10T04:39:40;12.00;99.90
5200;DHT22;2619;47.868;11.892;2023-05-10T04:42:05;12.10;99.90
5200;DHT22;2619;47.868;11.892;2023-05-10T04:44:34;12.10;99.90
5200;DHT22;2619;47.868;11.892;2023-05-10T04:47:00;12.00;99.90
5200;DHT22;2619;47.868;11.892;2023-05-10T04:49:27;12.10;99.90
5200;DHT22;2619;47.868;11.892;2023-05-10T04:51:53;12.10;99.90
5200;DHT22;2619;47.868;11.892;2023-05-10T04:54:19;12.10;99.90
5200;DHT22;2619;47.868;11.892;2023-05-10T04:56:44;12.10;99.90
5200;DHT22;2619;47.868;11.892;2023-05-10T04:59:10;12.10;99.90
5200;DHT22;2619;47.868;11.892;2023-05-10T05:01:36;12.20;99.90
5200;DHT22;2619;47.868;11.892;2023-05-10T05:04:01;12.20;99.90
5200;DHT22;2619;47.868;11.892;2023-05-10T05:06:27;12.20;99.90
5200;DHT22;2619;47.868;11.892;2023-05-10T05:08:53;12.20;99.90
5200;DHT22;2619;47.868;11.892;2023-05-10T05:11:18;12.20;99.90
5200;DHT22;2619;47.868;11.892;2023-05-10T05:13:44;12.30;99.90
5200;DHT22;2619;47.868;11.892;2023-05-10T05:16:10;12.30;99.90
5200;DHT22;2619;47.868;11.892;2023-05-10T05:18:38;12.30;99.90
5200;DHT22;2619;47.868;11.892;2023-05-10T05:21:14;12.30;99.90
5200;DHT22;2619;47.868;11.892;2023-05-10T05:23:40;12.20;99.90
5200;DHT22;2619;47.868;11.892;2023-05-10T05:26:06;12.30;99.90
5200;DHT22;2619;47.868;11.892;2023-05-10T05:28:31;12.30;99.90
5200;DHT22;2619;47.868;11.892;2023-05-10T05:30:59;12.40;99.90
5200;DHT22;2619;47.868;11.892;2023-05-10T05:33:24;12.40;99.90
5200;DHT22;2619;47.868;11.892;2023-05-10T05:35:50;12.50;99.90
5200;DHT22;2619;47.868;11.892;2023-05-10T05:38:16;12.40;99.90
5200;DHT22;2619;47.868;11.892;2023-05-10T05:40:42;12.40;99.90
5200;DHT22;2619;47.868;11.892;2023-05-10T05:43:08;12.40;99.90
5200;DHT22;2619;47.868;11.892;2023-05-10T05:45:34;12.40;99.90
5200;DHT22;2619;47.868;11.892;2023-05-10T05:47:59;12.40;99.90
5200;DHT22;2619;47.868;11.892;2023-05-10T05:50:25;12.30;99.90
5200;DHT22;2619;47.868;11.892;2023-05-10T05:52:51;12.30;99.90
5200;DHT22;2619;47.868;11.892;2023-05-10T05:55:16;12.30;99.90
5200;DHT22;2619;47.868;11.892;2023-05-10T05:57:42;12.30;99.90
5200;DHT22;2619;47.868;11.892;2023-05-10T06:00:08;12.30;99.90
5200;DHT22;2619;47.868;11.892;2023-05-10T06:02:33;12.20;99.90
5200;DHT22;2619;47.868;11.892;2023-05-10T06:04:59;12.30;99.90
5200;DHT22;2619;47.868;11.892;2023-05-10T06:07:24;12.30;99.90
5200;DHT22;2619;47.868;11.892;2023-05-10T06:09:51;12.30;99.90
5200;DHT22;2619;47.868;11.892;2023-05-10T06:12:16;12.30;99.90
5200;DHT22;2619;47.868;11.892;2023-05-10T06:14:42;12.30;99.90
5200;DHT22;2619;47.868;11.892;2023-05-10T06:17:07;12.30;99.90
5200;DHT22;2619;47.868;11.892;2023-05-10T06:19:33;12.30;99.90
5200;DHT22;2619;47.868;11.892;2023-05-10T06:21:58;12.30;99.90
5200;DHT22;2619;47.868;11.892;2023-05-10T06:24:24;12.30;99.90
5200;DHT22;2619;47.868;11.892;2023-05-10T06:26:50;12.40;99.90
5200;DHT22;2619;47.868;11.892;2023-05-10T06:29:15;12.40;99.90
5200;DHT22;2619;47.868;11.892;2023-05-10T06:31:41;12.30;99.90
5200;DHT22;2619;47.868;11.892;2023-05-10T06:34:06;12.30;99.90
5200;DHT22;2619;47.868;11.892;2023-05-10T06:36:33;12.40;99.90
5200;DHT22;2619;47.868;11.892;2023-05-10T06:38:59;12.60;99.90
5200;DHT22;2619;47.868;11.892;2023-05-10T06:41:24;12.70;99.90
5200;DHT22;2619;47.868;11.892;2023-05-10T06:43:50;12.70;99.90
5200;DHT22;2619;47.868;11.892;2023-05-10T06:46:15;12.80;99.90
5200;DHT22;2619;47.868;11.892;2023-05-10T06:48:41;12.80;99.90
5200;DHT22;2619;47.868;11.892;2023-05-10T06:51:06;12.70;99.90
5200;DHT22;2619;47.868;11.892;2023-05-10T06:53:32;12.80;99.90
5200;DHT22;2619;47.868;11.892;2023-05-10T06:55:58;12.80;99.90
5200;DHT22;2619;47.868;11.892;2023-05-10T06:58:23;12.70;99.90
5200;DHT22;2619;47.868;11.892;2023-05-10T07:00:49;12.70;99.90
5200;DHT22;2619;47.868;11.892;2023-05-10T07:03:14;12.60;99.90
5200;DHT22;2619;47.868;11.892;2023-05-10T07:05:40;12.40;99.90
5200;DHT22;2619;47.868;11.892;2023-05-10T07:08:06;12.30;99.90
5200;DHT22;2619;47.868;11.892;2023-05-10T07:10:32;12.30;99.90
5200;DHT22;2619;47.868;11.892;2023-05-10T07:12:58;12.40;99.90
5200;DHT22;2619;47.868;11.892;2023-05-10T07:15:23;12.50;99.90
5200;DHT22;2619;47.868;11.892;2023-05-10T07:17:49;12.50;99.90
5200;DHT22;2619;47.868;11.892;2023-05-10T07:20:15;12.60;99.90
5200;DHT22;2619;47.868;11.892;2023-05-10T07:22:40;12.60;99.90
5200;DHT22;2619;47.868;11.892;2023-05-10T07:25:06;12.60;99.90
5200;DHT22;2619;47.868;11.892;2023-05-10T07:27:32;12.60;99.90
5200;DHT22;2619;47.868;11.892;2023-05-10T07:29:57;12.50;99.90
5200;DHT22;2619;47.868;11.892;2023-05-10T07:32:23;12.60;99.90
5200;DHT22;2619;47.868;11.892;2023-05-10T07:34:49;12.70;99.90
5200;DHT22;2619;47.868;11.892;2023-05-10T07:37:15;12.80;99.90
5200;DHT22;2619;47.868;11.892;2023-05-10T07:39:40;13.00;99.90
5200;DHT22;2619;47.868;11.892;2023-05-10T07:42:06;13.20;99.90
5200;DHT22;2619;47.868;11.892;2023-05-10T07:44:31;13.40;99.90
5200;DHT22;2619;47.868;11.892;2023-05-10T07:46:57;13.50;99.90
5200;DHT22;2619;47.868;11.892;2023-05-10T07:49:23;13.70;99.90
5200;DHT22;2619;47.868;11.892;2023-05-10T07:51:51;13.90;99.90
5200;DHT22;2619;47.868;11.892;2023-05-10T07:54:16;13.90;99.90
5200;DHT22;2619;47.868;11.892;2023-05-10T07:56:42;13.90;99.90
5200;DHT22;2619;47.868;11.892;2023-05-10T07:59:15;13.80;99.90
5200;DHT22;2619;47.868;11.892;2023-05-10T08:01:41;13.90;99.90
5200;DHT22;2619;47.868;11.892;2023-05-10T08:04:07;14.00;99.90
5200;DHT22;2619;47.868;11.892;2023-05-10T08:06:34;14.20;99.90
5200;DHT22;2619;47.868;11.892;2023-05-10T08:08:59;14.50;99.90
5200;DHT22;2619;47.868;11.892;2023-05-10T08:11:25;14.80;99.90
5200;DHT22;2619;47.868;11.892;2023-05-10T08:13:53;15.00;99.90
5200;DHT22;2619;47.868;11.892;2023-05-10T08:16:19;15.20;99.90
5200;DHT22;2619;47.868;11.892;2023-05-10T08:18:46;15.60;99.90
5200;DHT22;2619;47.868;11.892;2023-05-10T08:21:12;15.70;99.90
5200;DHT22;2619;47.868;11.892;2023-05-10T08:23:38;15.80;99.90
5200;DHT22;2619;47.868;11.892;2023-05-10T08:26:04;15.90;99.90
5200;DHT22;2619;47.868;11.892;2023-05-10T08:28:30;16.00;99.90
5200;DHT22;2619;47.868;11.892;2023-05-10T08:30:56;16.00;99.90
5200;DHT22;2619;47.868;11.892;2023-05-10T08:33:21;16.00;99.90
5200;DHT22;2619;47.868;11.892;2023-05-10T08:35:47;16.00;99.90
5200;DHT22;2619;47.868;11.892;2023-05-10T08:38:13;15.90;99.90
5200;DHT22;2619;47.868;11.892;2023-05-10T08:40:41;16.00;99.90
5200;DHT22;2619;47.868;11.892;2023-05-10T08:43:11;16.00;99.90
5200;DHT22;2619;47.868;11.892;2023-05-10T08:45:44;15.90;99.90
5200;DHT22;2619;47.868;11.892;2023-05-10T08:48:13;15.60;99.90
5200;DHT22;2619;47.868;11.892;2023-05-10T08:50:40;15.50;99.90
5200;DHT22;2619;47.868;11.892;2023-05-10T08:53:13;15.30;99.90
5200;DHT22;2619;47.868;11.892;2023-05-10T08:55:40;15.00;99.90
5200;DHT22;2619;47.868;11.892;2023-05-10T08:58:07;14.60;99.90
5200;DHT22;2619;47.868;11.892;2023-05-10T09:00:34;14.30;99.90
5200;DHT22;2619;47.868;11.892;2023-05-10T09:03:02;14.10;99.90
5200;DHT22;2619;47.868;11.892;2023-05-10T09:05:28;14.10;99.90
5200;DHT22;2619;47.868;11.892;2023-05-10T09:07:54;14.00;99.90
5200;DHT22;2619;47.868;11.892;2023-05-10T09:10:20;14.10;99.90
5200;DHT22;2619;47.868;11.892;2023-05-10T09:12:46;14.30;99.90
5200;DHT22;2619;47.868;11.892;2023-05-10T09:15:15;14.40;99.90
5200;DHT22;2619;47.868;11.892;2023-05-10T09:17:42;14.60;99.90
5200;DHT22;2619;47.868;11.892;2023-05-10T09:20:09;14.80;99.90
5200;DHT22;2619;47.868;11.892;2023-05-10T09:22:35;14.90;99.90
5200;DHT22;2619;47.868;11.892;2023-05-10T09:25:12;15.00;99.90
5200;DHT22;2619;47.868;11.892;2023-05-10T09:27:39;15.20;99.90
5200;DHT22;2619;47.868;11.892;2023-05-10T09:30:06;15.10;99.90
5200;DHT22;2619;47.868;11.892;2023-05-10T09:32:45;14.90;99.90
5200;DHT22;2619;47.868;11.892;2023-05-10T09:35:14;15.00;99.90
5200;DHT22;2619;47.868;11.892;2023-05-10T09:37:41;14.90;99.90
5200;DHT22;2619;47.868;11.892;2023-05-10T09:40:11;14.90;99.90
5200;DHT22;2619;47.868;11.892;2023-05-10T09:42:37;14.90;99.90
5200;DHT22;2619;47.868;11.892;2023-05-10T09:45:06;15.00;99.90
5200;DHT22;2619;47.868;11.892;2023-05-10T09:47:35;15.20;99.90
5200;DHT22;2619;47.868;11.892;2023-05-10T09:50:02;15.40;99.90
5200;DHT22;2619;47.868;11.892;2023-05-10T09:52:49;15.30;99.90
5200;DHT22;2619;47.868;11.892;2023-05-10T09:55:17;15.10;99.90
5200;DHT22;2619;47.868;11.892;2023-05-10T09:57:42;15.00;99.90
5200;DHT22;2619;47.868;11.892;2023-05-10T10:00:08;14.80;99.90
5200;DHT22;2619;47.868;11.892;2023-05-10T10:02:38;14.60;99.90
5200;DHT22;2619;47.868;11.892;2023-05-10T10:05:06;14.40;99.90
5200;DHT22;2619;47.868;11.892;2023-05-10T10:07:32;14.10;99.90
5200;DHT22;2619;47.868;11.892;2023-05-10T10:09:58;14.00;99.90
5200;DHT22;2619;47.868;11.892;2023-05-10T10:12:25;14.00;99.90
5200;DHT22;2619;47.868;11.892;2023-05-10T10:14:51;14.10;99.90
5200;DHT22;2619;47.868;11.892;2023-05-10T10:17:17;14.20;99.90
5200;DHT22;2619;47.868;11.892;2023-05-10T10:19:43;14.20;99.90
5200;DHT22;2619;47.868;11.892;2023-05-10T10:22:09;14.20;99.90
5200;DHT22;2619;47.868;11.892;2023-05-10T10:24:38;14.20;99.90
5200;DHT22;2619;47.868;11.892;2023-05-10T10:27:13;14.10;99.90
5200;DHT22;2619;47.868;11.892;2023-05-10T10:29:50;14.30;99.90
5200;DHT22;2619;47.868;11.892;2023-05-10T10:32:24;14.30;99.90
5200;DHT22;2619;47.868;11.892;2023-05-10T10:34:51;14.30;99.90
5200;DHT22;2619;47.868;11.892;2023-05-10T10:37:17;14.30;99.90
5200;DHT22;2619;47.868;11.892;2023-05-10T10:39:43;14.30;99.90
5200;DHT22;2619;47.868;11.892;2023-05-10T10:42:08;14.20;99.90
5200;DHT22;2619;47.868;11.892;2023-05-10T10:44:36;14.20;99.90
5200;DHT22;2619;47.868;11.892;2023-05-10T10:55:18;14.30;99.90
5200;DHT22;2619;47.868;11.892;2023-05-10T10:57:57;14.20;99.90
5200;DHT22;2619;47.868;11.892;2023-05-10T11:00:36;14.20;99.90
5200;DHT22;2619;47.868;11.892;2023-05-10T11:03:15;14.00;99.90
5200;DHT22;2619;47.868;11.892;2023-05-10T11:05:48;13.90;99.90
5200;DHT22;2619;47.868;11.892;2023-05-10T11:08:30;13.70;99.90
5200;DHT22;2619;47.868;11.892;2023-05-10T11:13:33;13.30;99.90
5200;DHT22;2619;47.868;11.892;2023-05-10T11:16:09;13.30;99.90
5200;DHT22;2619;47.868;11.892;2023-05-10T11:18:36;13.00;99.90
5200;DHT22;2619;47.868;11.892;2023-05-10T11:21:03;13.00;99.90
5200;DHT22;2619;47.868;11.892;2023-05-10T11:23:54;13.10;99.90
5200;DHT22;2619;47.868;11.892;2023-05-10T11:26:22;13.10;99.90
5200;DHT22;2619;47.868;11.892;2023-05-10T11:28:53;13.10;99.90
5200;DHT22;2619;47.868;11.892;2023-05-10T11:31:20;13.30;99.90
5200;DHT22;2619;47.868;11.892;2023-05-10T11:33:47;13.80;99.90
5200;DHT22;2619;47.868;11.892;2023-05-10T11:36:18;14.00;99.90
5200;DHT22;2619;47.868;11.892;2023-05-10T11:38:45;14.40;99.90
5200;DHT22;2619;47.868;11.892;2023-05-10T11:41:11;14.60;99.90
5200;DHT22;2619;47.868;11.892;2023-05-10T11:43:41;14.80;99.90
5200;DHT22;2619;47.868;11.892;2023-05-10T11:46:09;15.00;99.90
5200;DHT22;2619;47.868;11.892;2023-05-10T11:48:36;15.20;99.90
5200;DHT22;2619;47.868;11.892;2023-05-10T11:51:02;15.50;99.90
5200;DHT22;2619;47.868;11.892;2023-05-10T11:53:30;15.70;99.90
5200;DHT22;2619;47.868;11.892;2023-05-10T11:56:06;15.90;99.90
5200;DHT22;2619;47.868;11.892;2023-05-10T11:58:32;16.00;99.90
5200;DHT22;2619;47.868;11.892;2023-05-10T12:00:59;16.10;99.90
5200;DHT22;2619;47.868;11.892;2023-05-10T12:03:29;16.00;99.90
5200;DHT22;2619;47.868;11.892;2023-05-10T12:05:55;16.40;99.90
5200;DHT22;2619;47.868;11.892;2023-05-10T12:08:26;16.60;99.90
5200;DHT22;2619;47.868;11.892;2023-05-10T12:10:54;16.40;99.90
5200;DHT22;2619;47.868;11.892;2023-05-10T12:13:28;16.50;99.90
5200;DHT22;2619;47.868;11.892;2023-05-10T12:15:57;16.40;99.90
5200;DHT22;2619;47.868;11.892;2023-05-10T12:18:24;16.20;99.90
5200;DHT22;2619;47.868;11.892;2023-05-10T12:20:52;15.80;99.90
5200;DHT22;2619;47.868;11.892;2023-05-10T12:23:20;15.60;99.90
5200;DHT22;2619;47.868;11.892;2023-05-10T12:25:45;15.30;99.90
5200;DHT22;2619;47.868;11.892;2023-05-10T12:28:11;15.20;99.90
5200;DHT22;2619;47.868;11.892;2023-05-10T12:30:37;15.00;99.90
5200;DHT22;2619;47.868;11.892;2023-05-10T12:33:11;14.70;99.90
5200;DHT22;2619;47.868;11.892;2023-05-10T12:35:46;14.70;99.90
5200;DHT22;2619;47.868;11.892;2023-05-10T12:38:43;14.70;99.90
5200;DHT22;2619;47.868;11.892;2023-05-10T12:41:11;14.80;99.90
5200;DHT22;2619;47.868;11.892;2023-05-10T12:43:37;14.70;99.90
5200;DHT22;2619;47.868;11.892;2023-05-10T12:46:13;14.60;99.90
5200;DHT22;2619;47.868;11.892;2023-05-10T12:48:41;14.50;99.90
5200;DHT22;2619;47.868;11.892;2023-05-10T12:51:07;14.60;99.90
5200;DHT22;2619;47.868;11.892;2023-05-10T12:53:38;14.50;99.90
5200;DHT22;2619;47.868;11.892;2023-05-10T12:56:03;14.40;99.90
5200;DHT22;2619;47.868;11.892;2023-05-10T12:58:29;14.40;99.90
5200;DHT22;2619;47.868;11.892;2023-05-10T13:00:55;14.40;99.90
5200;DHT22;2619;47.868;11.892;2023-05-10T13:03:22;14.50;99.90
5200;DHT22;2619;47.868;11.892;2023-05-10T13:05:48;14.50;99.90
5200;DHT22;2619;47.868;11.892;2023-05-10T13:08:13;14.20;99.90
5200;DHT22;2619;47.868;11.892;2023-05-10T13:10:39;14.00;99.90
5200;DHT22;2619;47.868;11.892;2023-05-10T13:13:05;14.10;99.90
5200;DHT22;2619;47.868;11.892;2023-05-10T13:15:32;14.20;99.90
5200;DHT22;2619;47.868;11.892;2023-05-10T13:17:58;14.40;99.90
5200;DHT22;2619;47.868;11.892;2023-05-10T13:20:24;14.30;99.90
5200;DHT22;2619;47.868;11.892;2023-05-10T13:22:50;14.20;99.90
5200;DHT22;2619;47.868;11.892;2023-05-10T13:25:15;14.10;99.90
5200;DHT22;2619;47.868;11.892;2023-05-10T13:27:41;14.00;99.90
5200;DHT22;2619;47.868;11.892;2023-05-10T13:30:07;13.90;99.90
5200;DHT22;2619;47.868;11.892;2023-05-10T13:32:34;13.80;99.90
5200;DHT22;2619;47.868;11.892;2023-05-10T13:35:00;13.80;99.90
5200;DHT22;2619;47.868;11.892;2023-05-10T13:37:25;14.00;99.90
5200;DHT22;2619;47.868;11.892;2023-05-10T13:39:51;14.10;99.90
5200;DHT22;2619;47.868;11.892;2023-05-10T13:42:17;14.10;99.90
5200;DHT22;2619;47.868;11.892;2023-05-10T13:44:43;14.10;99.90
5200;DHT22;2619;47.868;11.892;2023-05-10T13:47:09;14.00;99.90
5200;DHT22;2619;47.868;11.892;2023-05-10T13:49:35;13.90;99.90
5200;DHT22;2619;47.868;11.892;2023-05-10T13:52:01;13.90;99.90
5200;DHT22;2619;47.868;11.892;2023-05-10T13:54:41;13.90;99.90
5200;DHT22;2619;47.868;11.892;2023-05-10T13:57:07;14.00;99.90
5200;DHT22;2619;47.868;11.892;2023-05-10T13:59:32;14.10;99.90
5200;DHT22;2619;47.868;11.892;2023-05-10T14:01:58;14.20;99.90
5200;DHT22;2619;47.868;11.892;2023-05-10T14:04:24;14.30;99.90
5200;DHT22;2619;47.868;11.892;2023-05-10T14:06:50;14.30;99.90
5200;DHT22;2619;47.868;11.892;2023-05-10T14:09:16;14.10;99.90
5200;DHT22;2619;47.868;11.892;2023-05-10T14:11:42;14.10;99.90
5200;DHT22;2619;47.868;11.892;2023-05-10T14:14:09;14.00;99.90
5200;DHT22;2619;47.868;11.892;2023-05-10T14:16:35;14.00;99.90
5200;DHT22;2619;47.868;11.892;2023-05-10T14:19:00;14.00;99.90
5200;DHT22;2619;47.868;11.892;2023-05-10T14:21:27;14.00;99.90
5200;DHT22;2619;47.868;11.892;2023-05-10T14:23:54;13.90;99.90
5200;DHT22;2619;47.868;11.892;2023-05-10T14:26:20;13.80;99.90
5200;DHT22;2619;47.868;11.892;2023-05-10T14:28:47;13.60;99.90
5200;DHT22;2619;47.868;11.892;2023-05-10T14:31:12;13.40;99.90
5200;DHT22;2619;47.868;11.892;2023-05-10T14:33:38;13.30;99.90
5200;DHT22;2619;47.868;11.892;2023-05-10T14:36:03;13.40;99.90
5200;DHT22;2619;47.868;11.892;2023-05-10T14:38:29;13.40;99.90
5200;DHT22;2619;47.868;11.892;2023-05-10T14:40:55;13.50;99.90
5200;DHT22;2619;47.868;11.892;2023-05-10T14:43:20;13.50;99.90
5200;DHT22;2619;47.868;11.892;2023-05-10T14:45:46;13.50;99.90
5200;DHT22;2619;47.868;11.892;2023-05-10T14:48:12;13.40;99.90
5200;DHT22;2619;47.868;11.892;2023-05-10T14:50:40;13.30;99.90
5200;DHT22;2619;47.868;11.892;2023-05-10T14:53:06;13.40;99.90
5200;DHT22;2619;47.868;11.892;2023-05-10T14:55:32;13.40;99.90
5200;DHT22;2619;47.868;11.892;2023-05-10T14:57:58;13.20;99.90
5200;DHT22;2619;47.868;11.892;2023-05-10T15:00:23;13.20;99.90
5200;DHT22;2619;47.868;11.892;2023-05-10T15:02:49;13.30;99.90
5200;DHT22;2619;47.868;11.892;2023-05-10T15:05:15;13.30;99.90
5200;DHT22;2619;47.868;11.892;2023-05-10T15:07:40;13.20;99.90
5200;DHT22;2619;47.868;11.892;2023-05-10T15:10:09;13.20;99.90
5200;DHT22;2619;47.868;11.892;2023-05-10T15:12:35;13.20;99.90
5200;DHT22;2619;47.868;11.892;2023-05-10T15:15:00;13.10;99.90
5200;DHT22;2619;47.868;11.892;2023-05-10T15:17:26;12.90;99.90
5200;DHT22;2619;47.868;11.892;2023-05-10T15:19:51;12.80;99.90
5200;DHT22;2619;47.868;11.892;2023-05-10T15:22:17;12.70;99.90
5200;DHT22;2619;47.868;11.892;2023-05-10T15:24:43;12.70;99.90
5200;DHT22;2619;47.868;11.892;2023-05-10T15:27:08;12.60;99.90
5200;DHT22;2619;47.868;11.892;2023-05-10T15:29:34;12.60;99.90
5200;DHT22;2619;47.868;11.892;2023-05-10T15:32:01;12.60;99.90
5200;DHT22;2619;47.868;11.892;2023-05-10T15:34:27;12.50;99.90
5200;DHT22;2619;47.868;11.892;2023-05-10T15:36:53;12.50;99.90
5200;DHT22;2619;47.868;11.892;2023-05-10T15:39:18;12.50;99.90
5200;DHT22;2619;47.868;11.892;2023-05-10T15:41:45;12.50;99.90
5200;DHT22;2619;47.868;11.892;2023-05-10T15:44:11;12.50;99.90
5200;DHT22;2619;47.868;11.892;2023-05-10T15:46:36;12.60;99.90
5200;DHT22;2619;47.868;11.892;2023-05-10T15:49:03;12.60;99.90
5200;DHT22;2619;47.868;11.892;2023-05-10T15:51:28;12.50;99.90
5200;DHT22;2619;47.868;11.892;2023-05-10T15:53:54;12.50;99.90
5200;DHT22;2619;47.868;11.892;2023-05-10T15:56:20;12.50;99.90
5200;DHT22;2619;47.868;11.892;2023-05-10T15:58:45;12.50;99.90
5200;DHT22;2619;47.868;11.892;2023-05-10T16:01:11;12.40;99.90
5200;DHT22;2619;47.868;11.892;2023-05-10T16:03:37;12.30;99.90
5200;DHT22;2619;47.868;11.892;2023-05-10T16:06:03;12.30;99.90
5200;DHT22;2619;47.868;11.892;2023-05-10T16:08:28;12.30;99.90
5200;DHT22;2619;47.868;11.892;2023-05-10T16:10:58;12.20;99.90
5200;DHT22;2619;47.868;11.892;2023-05-10T16:13:24;12.10;99.90
5200;DHT22;2619;47.868;11.892;2023-05-10T16:15:49;12.10;99.90
5200;DHT22;2619;47.868;11.892;2023-05-10T16:18:15;12.10;99.90